createdAt,value
2022-09-29T02:04:23.625Z,15.63
2022-09-29T02:07:27.892Z,15.86
2022-09-29T02:10:32.961Z,15.81
2022-09-29T04:08:39.914Z,15.69
2022-09-29T04:52:50.146Z,16.01
2022-09-29T04:55:30.712Z,16.11
2022-09-29T04:58:00.264Z,15.95
2022-09-29T05:01:10.804Z,16.07
2022-09-29T05:03:58.236Z,16.07
2022-09-29T05:06:26.885Z,16.30
2022-09-29T05:08:55.258Z,16.08
2022-09-29T05:11:30.327Z,16.25
2022-09-29T05:13:58.972Z,16.17
2022-09-29T05:16:27.245Z,15.83
2022-09-29T05:19:11.165Z,16.06
2022-09-29T05:21:39.951Z,16.14
2022-09-29T05:24:10.525Z,16.15
2022-09-29T06:18:04.214Z,16.27
2022-09-29T06:20:53.014Z,16.39
2022-09-29T06:23:39.596Z,16.44
2022-09-29T06:26:25.071Z,16.45
2022-09-29T06:29:08.454Z,16.34
2022-09-29T06:31:42.250Z,16.13
2022-09-29T06:34:30.140Z,15.97
2022-09-29T07:40:49.495Z,16.36
2022-09-29T07:43:19.961Z,15.70
2022-09-29T07:45:49.962Z,16.32
2022-09-29T07:48:19.609Z,16.48
2022-09-29T07:50:52.947Z,16.54
2022-09-29T07:53:22.715Z,16.75
2022-09-29T07:55:51.109Z,16.79
2022-09-29T07:58:19.012Z,16.86
2022-09-29T08:00:53.898Z,16.78
2022-09-29T08:03:22.583Z,16.93
2022-09-29T08:05:52.875Z,16.93
2022-09-29T08:08:22.171Z,16.87
2022-09-29T08:10:53.857Z,16.84
2022-09-29T08:13:23.304Z,16.84
2022-09-29T08:15:58.587Z,17.17
2022-09-29T08:18:28.653Z,17.33
2022-09-29T08:21:01.257Z,17.49
2022-09-29T08:23:43.217Z,17.80
2022-09-29T08:26:20.345Z,17.83
2022-09-29T08:29:05.516Z,17.97
2022-09-29T08:31:51.433Z,18.01
2022-09-29T08:34:24.314Z,17.96
2022-09-29T08:36:55.890Z,18.17
2022-09-29T08:40:00.761Z,18.47
2022-09-29T08:42:55.498Z,18.71
2022-09-29T08:46:01.446Z,18.87
2022-09-29T08:48:58.096Z,19.02
2022-09-29T08:51:41.993Z,18.66
2022-09-29T08:54:35.979Z,18.90
2022-09-29T08:57:06.248Z,19.05
2022-09-29T08:59:38.837Z,19.28
2022-09-29T09:02:29.734Z,19.61
2022-09-29T09:05:07.980Z,19.77
2022-09-29T09:08:12.381Z,19.87
2022-09-29T09:10:48.300Z,20.05
2022-09-29T09:13:26.654Z,20.37
2022-09-29T09:16:02.472Z,20.20
2022-09-29T09:18:53.852Z,20.20
2022-09-29T09:21:54.268Z,20.58
2022-09-29T09:24:40.141Z,20.14
2022-09-29T09:27:15.911Z,20.31
2022-09-29T09:29:45.176Z,20.53
2022-09-29T09:32:26.141Z,20.29
2022-09-29T09:35:24.347Z,19.83
2022-09-29T09:37:54.712Z,20.42
2022-09-29T09:40:26.976Z,20.19
2022-09-29T09:43:20.879Z,20.06
2022-09-29T09:46:00.655Z,20.30
2022-09-29T09:48:39.398Z,20.23
2022-09-29T09:51:56.407Z,20.27
2022-09-29T09:54:35.023Z,20.48
2022-09-29T09:57:28.324Z,20.45
2022-09-29T10:00:00.349Z,20.60
2022-09-29T10:02:34.901Z,20.95
2022-09-29T10:05:07.456Z,20.89
2022-09-29T10:07:39.009Z,21.25
2022-09-29T10:10:16.413Z,21.58
2022-09-29T10:12:45.394Z,21.55
2022-09-29T10:15:24.771Z,21.50
2022-09-29T10:18:12.612Z,21.62
2022-09-29T10:20:42.811Z,21.66
2022-09-29T10:23:31.544Z,21.74
2022-09-29T10:26:18.448Z,21.88
2022-09-29T10:28:50.358Z,21.74
2022-09-29T10:31:23.022Z,21.46
2022-09-29T10:34:15.483Z,21.55
2022-09-29T10:36:57.842Z,21.92
2022-09-29T10:39:43.216Z,21.80
2022-09-29T10:42:38.173Z,21.51
2022-09-29T10:45:14.197Z,21.18
2022-09-29T10:47:46.049Z,21.46
2022-09-29T10:50:22.617Z,21.77
2022-09-29T10:52:58.466Z,22.13
2022-09-29T10:55:29.737Z,22.33
2022-09-29T10:57:58.624Z,22.23
2022-09-29T11:00:26.838Z,22.22
2022-09-29T11:03:01.518Z,22.11
2022-09-29T11:05:31.114Z,22.39
2022-09-29T11:07:59.045Z,22.47
2022-09-29T11:10:36.945Z,22.48
2022-09-29T11:13:24.767Z,22.17
2022-09-29T11:15:52.888Z,22.21
2022-09-29T11:18:34.551Z,21.89
2022-09-29T11:21:31.173Z,21.89
2022-09-29T11:24:45.526Z,21.95
2022-09-29T11:27:29.984Z,22.09
2022-09-29T11:30:11.919Z,21.96
2022-09-29T11:33:22.440Z,22.00
2022-09-29T11:36:13.341Z,21.75
2022-09-29T11:39:03.799Z,21.71
2022-09-29T11:41:56.434Z,21.81
2022-09-29T11:44:55.964Z,21.69
2022-09-29T11:47:46.031Z,21.38
2022-09-29T11:50:34.484Z,21.65
2022-09-29T11:53:08.526Z,21.41
2022-09-29T11:55:43.327Z,21.36
2022-09-29T11:58:34.020Z,21.27
2022-09-29T12:01:26.540Z,21.02
2022-09-29T12:04:07.835Z,21.25
2022-09-29T12:06:53.808Z,21.22
2022-09-29T12:09:35.137Z,21.07
2022-09-29T12:12:33.839Z,21.16
2022-09-29T12:15:17.615Z,20.64
2022-09-29T12:17:49.233Z,20.94
2022-09-29T12:20:24.399Z,21.01
2022-09-29T12:22:55.359Z,20.94
2022-09-29T12:25:27.960Z,20.91
2022-09-29T12:28:04.154Z,21.01
2022-09-29T12:30:56.361Z,21.11
2022-09-29T12:33:33.422Z,20.91
2022-09-29T12:36:43.584Z,20.94
2022-09-29T12:39:33.384Z,20.95
2022-09-29T12:42:13.870Z,20.66
2022-09-29T12:44:53.471Z,20.92
2022-09-29T12:47:43.949Z,20.85
2022-09-29T12:50:15.062Z,20.54
2022-09-29T12:52:47.021Z,20.58
2022-09-29T12:55:20.068Z,20.68
2022-09-29T12:57:50.356Z,20.67
2022-09-29T13:00:21.188Z,20.69
2022-09-29T13:03:16.457Z,20.46
2022-09-29T13:06:13.081Z,20.57
2022-09-29T13:08:58.401Z,20.77
2022-09-29T13:11:57.901Z,20.57
2022-09-29T13:14:41.211Z,20.90
2022-09-29T13:17:21.370Z,21.22
2022-09-29T13:20:19.784Z,21.47
2022-09-29T13:23:18.178Z,21.79
2022-09-29T13:26:02.498Z,22.02
2022-09-29T13:28:43.699Z,21.90
2022-09-29T13:31:16.457Z,21.69
2022-09-29T13:33:56.296Z,21.71
2022-09-29T13:36:31.182Z,21.90
2022-09-29T13:39:00.338Z,22.09
2022-09-29T13:41:30.182Z,21.79
2022-09-29T13:43:59.821Z,21.57
2022-09-29T13:46:32.628Z,21.30
2022-09-29T13:49:13.018Z,21.41
2022-09-29T13:52:08.864Z,21.17
2022-09-29T13:54:43.648Z,21.08
2022-09-29T13:57:13.575Z,20.97
2022-09-29T13:59:44.936Z,21.01
2022-09-29T14:02:34.697Z,20.92
2022-09-29T14:05:24.045Z,20.83
2022-09-29T14:08:02.581Z,20.85
2022-09-29T14:11:20.690Z,20.83
2022-09-29T14:14:25.019Z,20.77
2022-09-29T14:17:22.480Z,20.72
2022-09-29T14:20:15.394Z,20.40
2022-09-29T14:22:43.750Z,20.46
2022-09-29T14:25:15.489Z,20.55
2022-09-29T14:27:49.931Z,20.81
2022-09-29T14:30:19.021Z,20.78
2022-09-29T14:33:05.442Z,20.69
2022-09-29T14:35:37.497Z,20.59
2022-09-29T14:38:13.530Z,20.83
2022-09-29T14:41:02.374Z,20.81
2022-09-29T14:43:55.339Z,20.87
2022-09-29T14:47:06.463Z,20.69
2022-09-29T14:50:22.240Z,20.57
2022-09-29T14:53:15.573Z,20.64
2022-09-29T14:56:06.869Z,20.63
2022-09-29T14:58:58.531Z,20.78
2022-09-29T15:01:30.973Z,20.64
2022-09-29T15:04:05.874Z,20.36
2022-09-29T15:06:34.043Z,20.52
2022-09-29T15:09:17.402Z,20.61
2022-09-29T15:11:53.157Z,20.45
2022-09-29T15:14:20.910Z,20.48
2022-09-29T15:16:51.029Z,20.64
2022-09-29T15:19:38.735Z,20.48
2022-09-29T15:23:14.624Z,20.35
2022-09-29T15:26:12.113Z,20.53
2022-09-29T15:29:31.451Z,20.56
2022-09-29T15:32:54.161Z,20.71
2022-09-29T15:35:53.104Z,20.41
2022-09-29T15:39:41.982Z,20.16
2022-09-29T15:42:52.123Z,20.22
2022-09-29T15:45:58.885Z,20.35
2022-09-29T15:48:56.199Z,19.98
2022-09-29T15:52:04.739Z,20.14
2022-09-29T15:55:14.746Z,20.22
2022-09-29T15:59:07.275Z,20.01
2022-09-29T16:02:01.658Z,19.72
2022-09-29T16:05:31.964Z,19.55
2022-09-29T16:08:34.357Z,19.39
2022-09-29T16:11:38.387Z,18.96
2022-09-29T16:14:24.534Z,18.89
2022-09-29T16:18:03.690Z,18.91
2022-09-29T16:21:54.090Z,18.56
2022-09-29T16:24:49.230Z,18.66
2022-09-29T16:27:29.560Z,18.69
2022-09-29T16:30:45.924Z,18.60
2022-09-29T16:34:40.261Z,18.81
2022-09-29T16:37:34.676Z,18.94
2022-09-29T16:40:39.887Z,18.94
2022-09-29T16:47:08.781Z,18.73
2022-09-29T16:50:22.432Z,19.05
2022-09-29T16:53:09.571Z,18.91
2022-09-29T16:56:20.443Z,18.23
2022-09-29T16:59:23.913Z,18.06
2022-09-29T17:02:19.352Z,18.25
2022-09-29T17:05:25.007Z,18.06
2022-09-29T17:08:53.271Z,18.39
2022-09-29T17:11:43.796Z,18.40
2022-09-29T17:14:38.219Z,18.40
2022-09-29T17:17:27.117Z,17.97
2022-09-29T17:23:20.630Z,17.68
2022-09-29T17:25:55.873Z,17.96
2022-09-29T17:28:36.450Z,17.78
2022-09-29T17:31:36.381Z,17.69
2022-09-29T17:34:34.666Z,17.59
2022-09-29T17:37:18.502Z,17.50
2022-09-29T17:40:13.338Z,17.52
2022-09-29T17:42:47.400Z,17.32
2022-09-29T17:49:16.305Z,16.35
2022-09-29T17:51:58.628Z,16.43
2022-09-29T17:54:39.364Z,16.52
2022-09-29T17:57:24.442Z,16.84
2022-09-29T18:00:05.543Z,16.62
2022-09-29T18:03:04.646Z,16.69
2022-09-29T18:06:18.114Z,16.92
2022-09-29T18:09:07.508Z,17.00
2022-09-29T18:15:49.706Z,17.00
2022-09-29T18:18:58.789Z,16.33
2022-09-29T18:21:33.988Z,15.80
2022-09-29T18:24:25.041Z,16.40
2022-09-29T18:27:32.612Z,16.23
2022-09-29T18:31:12.417Z,16.63
2022-09-29T18:34:17.886Z,16.33
2022-09-29T18:37:44.201Z,16.49
2022-09-29T18:40:44.314Z,16.36
2022-09-29T18:44:14.024Z,16.11
2022-09-29T18:47:29.281Z,15.80
2022-09-29T18:51:25.688Z,16.06
2022-09-29T18:53:56.575Z,16.20
2022-09-29T18:56:35.657Z,16.17
2022-09-29T18:59:38.385Z,16.14
2022-09-29T19:10:50.620Z,16.17
2022-09-29T19:13:21.680Z,16.17
2022-09-29T19:16:54.968Z,16.22
2022-09-29T19:19:21.221Z,16.09
2022-09-29T19:22:31.463Z,16.39
2022-09-29T19:25:35.402Z,16.05
2022-09-29T19:28:30.336Z,16.20
2022-09-29T19:31:35.431Z,16.13
2022-09-29T19:34:09.806Z,15.85
2022-09-29T19:36:56.363Z,15.86
2022-09-29T19:39:42.464Z,15.66
2022-09-29T19:42:28.600Z,15.65
2022-09-29T19:45:16.696Z,15.78
2022-09-29T19:47:56.134Z,15.86
2022-09-29T19:50:54.482Z,15.71
2022-09-29T19:53:47.250Z,15.57
2022-09-29T19:57:06.339Z,15.74
2022-09-29T19:59:51.809Z,15.58
2022-09-29T20:03:04.113Z,15.49
2022-09-29T20:06:09.305Z,15.56
2022-09-29T20:09:17.678Z,15.09
2022-09-29T20:11:52.251Z,14.65
2022-09-29T20:14:44.629Z,14.13
2022-09-29T20:18:10.168Z,14.48
2022-09-29T20:21:25.577Z,14.93
2022-09-29T20:24:35.703Z,15.13
2022-09-29T20:31:19.060Z,14.99
2022-09-29T20:34:28.419Z,15.15
2022-09-29T20:37:37.309Z,15.02
2022-09-29T20:40:25.644Z,15.00
2022-09-29T20:43:18.786Z,15.49
2022-09-29T20:46:07.538Z,14.99
2022-09-29T20:48:55.460Z,14.92
2022-09-29T20:51:37.882Z,14.91
2022-09-29T20:54:57.859Z,14.89
2022-09-29T20:57:46.103Z,14.97
2022-09-29T21:00:42.095Z,14.92
2022-09-29T21:04:18.301Z,14.79
2022-09-29T21:07:01.191Z,14.91
2022-09-29T21:10:13.747Z,14.94
2022-09-29T21:13:18.727Z,14.92
2022-09-29T21:19:32.809Z,15.04
2022-09-29T21:22:21.353Z,14.83
2022-09-29T21:25:41.220Z,14.63
2022-09-29T21:28:57.866Z,14.11
2022-09-29T21:31:42.865Z,14.35
2022-09-29T21:35:02.177Z,14.62
2022-09-29T21:37:43.142Z,14.90
2022-09-29T21:47:32.549Z,15.08
2022-09-29T21:50:28.363Z,15.09
2022-09-29T21:54:23.443Z,14.99
2022-09-29T21:57:26.184Z,15.25
2022-09-29T22:05:35.917Z,14.77
2022-09-29T22:15:32.366Z,14.81
2022-09-29T22:19:28.719Z,14.83
2022-09-29T22:23:07.558Z,15.17
2022-09-29T22:26:54.897Z,15.46
2022-09-29T22:35:18.477Z,15.63
2022-09-29T23:00:52.636Z,15.46
2022-09-29T23:05:06.227Z,15.72
2022-09-29T23:08:44.543Z,15.74
2022-09-29T23:12:35.222Z,15.77
2022-09-29T23:19:25.029Z,15.69
2022-09-29T23:23:10.725Z,15.87
2022-09-29T23:31:06.883Z,15.73
2022-09-29T23:35:26.361Z,15.54
2022-09-29T23:49:43.020Z,15.48
